Time;durP1;ratioP1;P1;durP2;ratioP2;P2;SDS_P1;SDS_P2;PMS_P1;PMS_P2;Temp;Humidity;BMP_temperature;BMP_pressure;BME280_temperature;BME280_humidity;BME280_pressure;Samples;Min_cycle;Max_cycle;Signal;HPM_P1;HPM_P2
2024/04/02 00:00:37;;;;;;;1.50;1.27;;;;;;;4.66;100.00;95913.34;5002753;28;20081;-69
2024/04/02 00:03:07;;;;;;;2.28;1.38;;;;;;;4.60;100.00;95921.75;5000317;28;20042;-66
2024/04/02 00:05:37;;;;;;;2.08;1.13;;;;;;;4.64;100.00;95921.84;5003285;28;20048;-68
2024/04/02 00:08:04;;;;;;;2.25;1.23;;;;;;;4.59;100.00;95932.94;4982909;28;20065;-65
2024/04/02 00:10:30;;;;;;;2.75;1.10;;;;;;;4.33;100.00;95923.34;5020288;28;20052;-67
2024/04/02 00:12:56;;;;;;;2.20;1.40;;;;;;;4.05;100.00;95936.06;5023902;28;20072;-68
2024/04/02 00:15:21;;;;;;;1.80;1.30;;;;;;;4.22;100.00;95938.53;5012263;28;20049;-66
2024/04/02 00:17:47;;;;;;;1.85;1.40;;;;;;;4.27;100.00;95934.75;5003733;28;20044;-66
2024/04/02 00:20:12;;;;;;;1.88;1.50;;;;;;;4.26;100.00;95939.41;4997844;28;20127;-68
2024/04/02 00:22:40;;;;;;;2.85;1.48;;;;;;;4.33;100.00;95936.88;5003285;28;20137;-68
2024/04/02 00:25:05;;;;;;;1.83;1.40;;;;;;;4.63;100.00;95943.88;4997474;28;20042;-66
2024/04/02 00:27:31;;;;;;;1.95;1.45;;;;;;;4.57;100.00;95946.88;5001649;28;20378;-66
2024/04/02 00:29:57;;;;;;;1.80;1.30;;;;;;;4.59;100.00;95952.72;5000916;28;20733;-66
2024/04/02 00:32:22;;;;;;;1.67;1.35;;;;;;;4.57;100.00;95951.47;4997529;28;20535;-66
2024/04/02 00:34:48;;;;;;;1.98;1.10;;;;;;;4.63;100.00;95950.13;5001438;28;20045;-66
2024/04/02 00:37:14;;;;;;;2.05;1.30;;;;;;;4.69;100.00;95956.84;4996903;28;20034;-67
2024/04/02 00:39:39;;;;;;;1.83;1.15;;;;;;;4.71;100.00;95960.00;5002431;28;20050;-67
2024/04/02 00:42:05;;;;;;;1.55;1.02;;;;;;;4.70;100.00;95960.34;4998427;28;20041;-66
2024/04/02 00:44:34;;;;;;;1.83;1.02;;;;;;;4.44;100.00;95964.31;5004264;28;20123;-67
2024/04/02 00:46:59;;;;;;;1.98;1.27;;;;;;;4.36;100.00;95973.38;5001960;28;20451;-67
2024/04/02 00:49:25;;;;;;;4.60;1.40;;;;;;;4.49;100.00;95979.56;5007610;28;20046;-67
2024/04/02 00:51:51;;;;;;;1.35;1.13;;;;;;;4.60;100.00;95981.41;5012368;28;20046;-69
2024/04/02 00:54:17;;;;;;;1.55;1.27;;;;;;;4.63;100.00;95988.09;4997077;28;20041;-66
2024/04/02 00:56:42;;;;;;;1.55;1.17;;;;;;;4.60;100.00;95986.84;5001555;28;20046;-66
2024/04/02 00:59:09;;;;;;;1.30;1.10;;;;;;;4.69;100.00;95985.91;4996955;28;20192;-65
2024/04/02 01:01:34;;;;;;;1.17;0.93;;;;;;;4.70;100.00;95988.28;5001070;28;20133;-66
2024/04/02 01:04:00;;;;;;;1.67;1.08;;;;;;;4.75;100.00;95988.03;5001737;28;20204;-66
2024/04/02 01:06:26;;;;;;;1.05;0.82;;;;;;;5.06;100.00;95991.16;4979309;28;20050;-67
2024/04/02 01:08:51;;;;;;;1.10;1.00;;;;;;;5.24;100.00;95987.00;4992735;28;20038;-69
2024/04/02 01:11:17;;;;;;;2.95;0.90;;;;;;;5.52;100.00;95988.81;4993756;28;20057;-67
2024/04/02 01:13:43;;;;;;;1.10;0.90;;;;;;;5.70;100.00;95997.41;5001024;28;20048;-67
2024/04/02 01:16:11;;;;;;;1.35;0.80;;;;;;;5.75;100.00;95995.19;4996881;28;20041;-67
2024/04/02 01:18:36;;;;;;;0.80;0.80;;;;;;;5.74;100.00;95985.50;5002066;28;20042;-67
2024/04/02 01:21:02;;;;;;;1.30;0.90;;;;;;;5.68;100.00;95994.25;4998008;28;20586;-66
2024/04/02 01:23:28;;;;;;;1.25;0.80;;;;;;;5.74;100.00;95992.84;4984390;28;20056;-68
2024/04/02 01:25:53;;;;;;;1.05;0.80;;;;;;;5.77;100.00;95997.56;4984197;28;20041;-67
2024/04/02 01:28:19;;;;;;;0.82;0.70;;;;;;;5.67;100.00;96006.25;4979170;28;20042;-67
2024/04/02 01:30:44;;;;;;;1.40;1.00;;;;;;;5.60;100.00;95998.75;5002536;28;20049;-67
2024/04/02 01:33:10;;;;;;;5.43;0.82;;;;;;;5.57;100.00;96007.56;4994998;28;20080;-67
2024/04/02 01:35:35;;;;;;;1.00;0.75;;;;;;;5.59;100.00;96009.94;5000449;28;20133;-67
2024/04/02 01:38:01;;;;;;;0.80;0.77;;;;;;;5.68;100.00;96013.28;5000491;28;20037;-66
2024/04/02 01:40:26;;;;;;;0.88;0.80;;;;;;;5.68;100.00;96013.28;5000012;28;20481;-67
2024/04/02 01:42:52;;;;;;;2.33;0.90;;;;;;;5.81;100.00;96009.31;5000811;28;20037;-67
2024/04/02 01:45:18;;;;;;;0.95;0.75;;;;;;;5.79;100.00;96011.59;4996941;28;20037;-67
2024/04/02 01:47:43;;;;;;;0.80;0.80;;;;;;;5.75;100.00;96010.72;4999991;28;20456;-68
2024/04/02 01:50:09;;;;;;;1.13;0.90;;;;;;;5.81;100.00;96016.69;4996065;28;20507;-68
2024/04/02 01:52:34;;;;;;;0.93;0.82;;;;;;;5.90;100.00;96022.72;5001235;28;20448;-68
2024/04/02 01:54:59;;;;;;;2.45;0.70;;;;;;;5.93;100.00;96027.44;4999821;28;20052;-68
2024/04/02 01:57:25;;;;;;;1.08;0.98;;;;;;;5.87;100.00;96028.84;4978005;28;20052;-68
2024/04/02 01:59:50;;;;;;;1.92;0.85;;;;;;;5.89;100.00;96029.31;4982631;28;20069;-67
2024/04/02 02:02:16;;;;;;;1.35;0.90;;;;;;;5.99;100.00;96033.44;4996702;28;20160;-68
2024/04/02 02:04:41;;;;;;;0.95;0.80;;;;;;;5.96;100.00;96037.66;5000097;28;20044;-68
2024/04/02 02:07:07;;;;;;;4.18;0.80;;;;;;;5.98;100.00;96043.53;4995239;28;20038;-68
2024/04/02 02:09:32;;;;;;;0.90;0.60;;;;;;;6.11;100.00;96047.72;4999764;28;20069;-68
2024/04/02 02:11:59;;;;;;;0.80;0.70;;;;;;;6.09;100.00;96036.41;5000869;28;20582;-67
2024/04/02 02:14:24;;;;;;;1.10;0.90;;;;;;;6.08;100.00;96042.19;4994426;28;20120;-67
2024/04/02 02:16:49;;;;;;;1.15;1.05;;;;;;;6.09;100.00;96044.56;5000246;28;20049;-68
2024/04/02 02:19:15;;;;;;;1.88;0.80;;;;;;;6.05;100.00;96048.31;4995263;28;20042;-67
2024/04/02 02:21:40;;;;;;;2.90;0.73;;;;;;;6.09;100.00;96039.13;5000667;28;20046;-68
2024/04/02 02:24:06;;;;;;;0.70;0.70;;;;;;;6.11;100.00;96041.50;4995267;28;20045;-68
2024/04/02 02:26:32;;;;;;;0.70;0.70;;;;;;;6.09;100.00;96051.94;5000105;28;20493;-67
2024/04/02 02:28:58;;;;;;;0.73;0.60;;;;;;;6.10;100.00;96059.75;5000002;28;20046;-69
2024/04/02 02:31:23;;;;;;;0.82;0.80;;;;;;;6.22;100.00;96055.31;4995189;28;20566;-66
2024/04/02 02:33:49;;;;;;;1.13;0.95;;;;;;;6.37;100.00;96059.16;5001335;28;20593;-66
2024/04/02 02:36:14;;;;;;;1.33;0.70;;;;;;;6.31;100.00;96064.84;4997023;28;20121;-67
2024/04/02 02:38:40;;;;;;;2.60;0.82;;;;;;;6.33;100.00;96064.50;5000052;28;20104;-68
2024/04/02 02:41:05;;;;;;;0.60;0.60;;;;;;;6.32;100.00;96060.22;4995902;28;20034;-67
2024/04/02 02:43:30;;;;;;;1.50;0.60;;;;;;;6.33;100.00;96064.50;4981415;28;20129;-67
2024/04/02 02:45:56;;;;;;;0.77;0.60;;;;;;;6.45;100.00;96066.34;4999528;28;20034;-67
2024/04/02 02:48:22;;;;;;;0.90;0.50;;;;;;;6.37;100.00;96070.81;4994429;28;20096;-67
2024/04/02 02:50:47;;;;;;;3.33;0.70;;;;;;;6.28;100.00;96078.38;5000131;28;20157;-67
2024/04/02 02:53:14;;;;;;;0.65;0.50;;;;;;;6.24;100.00;96075.56;4995255;28;20038;-67
2024/04/02 02:55:39;;;;;;;0.50;0.50;;;;;;;6.28;100.00;96081.09;4997652;28;20048;-67
2024/04/02 02:58:05;;;;;;;0.80;0.60;;;;;;;6.24;100.00;96078.28;4995668;28;20054;-67
2024/04/02 03:00:30;;;;;;;0.70;0.70;;;;;;;6.12;100.00;96084.66;4999171;28;20509;-67
2024/04/02 03:02:56;;;;;;;1.60;0.50;;;;;;;6.26;100.00;96077.94;5000537;28;20042;-67
2024/04/02 03:05:21;;;;;;;0.52;0.50;;;;;;;6.21;100.00;96075.50;4997497;28;20128;-67
2024/04/02 03:07:47;;;;;;;0.57;0.57;;;;;;;6.23;100.00;96068.56;5000339;28;20133;-66
2024/04/02 03:10:12;;;;;;;0.85;0.52;;;;;;;6.14;100.00;96073.41;4996500;28;20095;-67
2024/04/02 03:12:37;;;;;;;0.40;0.40;;;;;;;6.24;100.00;96078.28;5000334;28;20045;-67
2024/04/02 03:15:04;;;;;;;0.50;0.50;;;;;;;6.24;100.00;96077.50;4979155;28;20076;-66
2024/04/02 03:17:29;;;;;;;0.50;0.50;;;;;;;6.28;100.00;96079.19;5003626;28;20041;-66
2024/04/02 03:19:55;;;;;;;0.68;0.50;;;;;;;6.30;100.00;96079.63;5003202;28;20124;-67
2024/04/02 03:22:20;;;;;;;1.15;0.55;;;;;;;6.30;100.00;96076.91;4998538;28;20631;-69
2024/04/02 03:24:45;;;;;;;0.30;0.30;;;;;;;6.28;100.00;96075.66;5004044;28;20141;-67
2024/04/02 03:27:11;;;;;;;2.00;0.50;;;;;;;6.21;100.00;96086.38;4998856;28;20428;-66
2024/04/02 03:29:36;;;;;;;0.50;0.43;;;;;;;6.16;100.00;96084.72;5004683;28;20045;-68
2024/04/02 03:32:01;;;;;;;1.75;0.52;;;;;;;6.19;100.00;96075.06;4984879;28;20056;-67
2024/04/02 03:34:27;;;;;;;0.65;0.50;;;;;;;6.16;100.00;96092.06;5001046;28;20500;-66
2024/04/02 03:36:53;;;;;;;0.43;0.40;;;;;;;6.20;100.00;96099.19;5003458;28;20038;-68
2024/04/02 03:39:19;;;;;;;0.65;0.50;;;;;;;6.25;100.00;96095.44;4998234;28;20038;-66
2024/04/02 03:41:45;;;;;;;0.50;0.50;;;;;;;6.22;100.00;96094.19;5003720;28;20045;-66
2024/04/02 03:44:10;;;;;;;0.50;0.50;;;;;;;6.23;100.00;96094.97;4999009;28;20045;-67
2024/04/02 03:46:35;;;;;;;1.67;0.50;;;;;;;6.09;100.00;96096.22;5003824;28;20045;-68
2024/04/02 03:49:01;;;;;;;0.73;0.70;;;;;;;6.18;100.00;96098.75;5003067;28;20041;-67
2024/04/02 03:51:27;;;;;;;1.25;0.50;;;;;;;6.30;100.00;96095.13;4998536;28;20042;-67
2024/04/02 03:53:52;;;;;;;1.05;0.55;;;;;;;6.24;100.00;96107.44;5002721;28;20177;-67
2024/04/02 03:56:18;;;;;;;0.70;0.60;;;;;;;6.23;100.00;96097.69;4998917;28;20052;-67
2024/04/02 03:58:43;;;;;;;0.60;0.60;;;;;;;6.25;100.00;96100.88;5001245;28;20041;-66
2024/04/02 04:01:09;;;;;;;2.55;0.80;;;;;;;6.26;100.00;96100.47;4998362;28;20057;-67
2024/04/02 04:03:35;;;;;;;2.72;0.57;;;;;;;6.27;100.00;96109.44;5002773;28;20050;-66
2024/04/02 04:06:05;;;;;;;0.50;0.50;;;;;;;6.31;100.00;96113.81;5002825;28;20052;-66
2024/04/02 04:08:32;;;;;;;0.50;0.50;;;;;;;6.38;100.00;96112.41;5004580;28;20049;-68
2024/04/02 04:10:58;;;;;;;4.88;0.68;;;;;;;6.40;100.00;96110.13;4988731;28;20030;-67
2024/04/02 04:13:24;;;;;;;0.68;0.50;;;;;;;6.37;100.00;96113.56;5000411;28;20042;-67
2024/04/02 04:15:54;;;;;;;0.43;0.40;;;;;;;6.28;100.00;96116.44;5004735;28;20038;-66
2024/04/02 04:18:20;;;;;;;;;;;;;;;6.29;100.00;96118.03;5004162;28;20069;-66
2024/04/02 04:20:59;;;;;;;0.57;0.57;;;;;;;6.28;100.00;96124.59;5015185;28;20328;-66
2024/04/02 04:23:25;;;;;;;1.42;0.55;;;;;;;6.25;100.00;96128.06;5011440;28;20053;-67
2024/04/02 04:25:58;;;;;;;1.42;0.50;;;;;;;6.21;100.00;96130.69;5016649;28;20052;-67
2024/04/02 04:28:24;;;;;;;1.05;0.68;;;;;;;6.21;100.00;96138.03;5017625;28;20506;-68
2024/04/02 04:31:00;;;;;;;1.10;0.60;;;;;;;6.19;100.00;96146.53;5000927;28;20042;-66
2024/04/02 04:33:27;;;;;;;1.42;0.60;;;;;;;6.28;100.00;96154.53;5009213;28;20053;-67
2024/04/02 04:35:53;;;;;;;0.60;0.50;;;;;;;6.24;100.00;96164.53;5004836;28;20045;-67
2024/04/02 04:38:20;;;;;;;0.85;0.50;;;;;;;6.24;100.00;96157.16;5000232;28;20033;-68
2024/04/02 04:40:46;;;;;;;2.88;0.60;;;;;;;6.24;100.00;96165.31;5002038;28;20220;-68
2024/04/02 04:43:14;;;;;;;0.50;0.50;;;;;;;6.25;100.00;96166.91;4979836;28;20505;-69
2024/04/02 04:45:40;;;;;;;0.82;0.57;;;;;;;6.27;100.00;96172.00;4994586;28;20038;-68
2024/04/02 04:48:06;;;;;;;1.92;0.45;;;;;;;6.38;100.00;96173.03;4998465;28;20056;-67
2024/04/02 04:50:33;;;;;;;0.73;0.60;;;;;;;6.37;100.00;96171.44;5002905;28;20038;-67
2024/04/02 04:52:59;;;;;;;0.65;0.50;;;;;;;6.35;100.00;96168.28;5003323;28;20037;-69
2024/04/02 04:55:25;;;;;;;1.38;0.70;;;;;;;6.34;100.00;96174.91;4997906;28;20100;-67
2024/04/02 04:57:51;;;;;;;2.47;0.80;;;;;;;6.38;100.00;96177.69;4984947;28;20038;-66
2024/04/02 05:00:16;;;;;;;1.20;0.70;;;;;;;6.32;100.00;96186.13;4999993;28;20509;-66
2024/04/02 05:02:41;;;;;;;5.07;0.60;;;;;;;6.29;100.00;96196.91;5003997;28;20046;-66
2024/04/02 05:05:07;;;;;;;0.52;0.52;;;;;;;6.36;100.00;96196.31;4997832;28;20129;-68
2024/04/02 05:07:33;;;;;;;0.80;0.50;;;;;;;6.40;100.00;96194.47;5003336;28;20061;-67
2024/04/02 05:09:58;;;;;;;1.15;0.60;;;;;;;6.42;100.00;96192.16;5002879;28;20033;-67
2024/04/02 05:12:23;;;;;;;1.20;0.60;;;;;;;6.36;100.00;96204.47;4980815;28;20130;-66
2024/04/02 05:14:49;;;;;;;0.55;0.50;;;;;;;6.33;100.00;96205.94;5003144;28;20050;-66
2024/04/02 05:17:14;;;;;;;0.57;0.50;;;;;;;6.30;100.00;96209.34;4998716;28;20057;-69
2024/04/02 05:19:40;;;;;;;0.73;0.60;;;;;;;6.31;100.00;96208.22;5002785;28;20121;-66
2024/04/02 05:22:06;;;;;;;0.93;0.60;;;;;;;6.35;100.00;96216.47;4999430;28;20038;-66
2024/04/02 05:24:33;;;;;;;0.70;0.63;;;;;;;6.36;100.00;96226.22;4999809;28;20054;-66
2024/04/02 05:26:59;;;;;;;1.83;0.70;;;;;;;6.40;100.00;96227.88;5002389;28;20046;-66
2024/04/02 05:29:24;;;;;;;2.13;0.55;;;;;;;6.36;100.00;96232.44;4997637;28;20677;-68
2024/04/02 05:31:50;;;;;;;0.80;0.80;;;;;;;6.44;100.00;96234.19;5003038;28;20050;-66
2024/04/02 05:34:15;;;;;;;1.00;0.75;;;;;;;6.51;100.00;96239.03;4980300;28;20124;-66
2024/04/02 05:36:41;;;;;;;0.85;0.60;;;;;;;6.45;100.00;96235.78;5002781;28;20057;-66
2024/04/02 05:39:08;;;;;;;1.05;0.70;;;;;;;6.43;100.00;96238.06;4978046;28;20034;-66
2024/04/02 05:41:33;;;;;;;2.92;0.50;;;;;;;6.48;100.00;96251.41;5001462;28;20107;-67
2024/04/02 05:43:58;;;;;;;1.48;0.80;;;;;;;6.55;100.00;96245.34;4984523;28;20046;-67
2024/04/02 05:46:24;;;;;;;0.60;0.60;;;;;;;6.54;100.00;96248.44;4995928;28;20116;-66
2024/04/02 05:48:49;;;;;;;1.33;0.75;;;;;;;6.63;100.00;96255.28;4983960;28;20065;-66
2024/04/02 05:51:15;;;;;;;0.63;0.50;;;;;;;6.65;100.00;96250.25;4995642;28;20069;-66
2024/04/02 05:53:40;;;;;;;0.85;0.63;;;;;;;6.76;100.00;96263.34;5000721;28;20045;-66
2024/04/02 05:56:06;;;;;;;4.25;0.70;;;;;;;6.84;100.00;96260.44;4995935;28;20038;-67
2024/04/02 05:58:32;;;;;;;1.17;0.60;;;;;;;6.69;100.00;96259.28;5001095;28;20053;-66
2024/04/02 06:01:07;;;;;;;1.63;0.57;;;;;;;6.61;100.00;96268.44;5000361;28;20189;-67
2024/04/02 06:03:33;;;;;;;1.23;0.60;;;;;;;6.57;100.00;96270.28;5001301;28;20416;-66
2024/04/02 06:05:59;;;;;;;0.50;0.50;;;;;;;6.55;100.00;96277.22;5000253;28;20045;-66
2024/04/02 06:08:25;;;;;;;2.25;0.60;;;;;;;6.60;100.00;96277.72;4995685;28;20044;-65
2024/04/02 06:10:50;;;;;;;1.75;0.73;;;;;;;6.59;100.00;96280.81;5000885;28;20042;-66
2024/04/02 06:13:16;;;;;;;1.10;0.68;;;;;;;6.65;100.00;96288.34;4995042;28;20125;-66
2024/04/02 06:15:42;;;;;;;3.50;0.73;;;;;;;6.53;100.00;96282.22;5002934;28;20038;-66
2024/04/02 06:18:08;;;;;;;0.73;0.70;;;;;;;6.57;100.00;96286.63;4979655;28;20125;-66
2024/04/02 06:20:34;;;;;;;6.05;0.80;;;;;;;6.65;100.00;96293.03;5000868;28;20132;-66
2024/04/02 06:22:59;;;;;;;0.93;0.60;;;;;;;6.58;100.00;96307.22;5000655;28;20106;-67
2024/04/02 06:25:25;;;;;;;2.60;0.93;;;;;;;6.69;100.00;96304.78;4977882;28;20461;-66
2024/04/02 06:27:50;;;;;;;1.85;0.80;;;;;;;6.61;100.00;96309.25;4999170;28;20483;-66
2024/04/02 06:30:16;;;;;;;1.80;0.93;;;;;;;6.68;100.00;96314.06;4995513;28;20060;-66
2024/04/02 06:32:41;;;;;;;2.50;0.80;;;;;;;6.62;100.00;96313.53;5000228;28;20069;-67
2024/04/02 06:35:07;;;;;;;1.30;0.73;;;;;;;6.69;100.00;96316.44;4996015;28;20042;-66
2024/04/02 06:37:32;;;;;;;1.02;0.75;;;;;;;6.70;100.00;96320.75;5000163;28;20396;-67
2024/04/02 06:39:57;;;;;;;2.38;1.35;;;;;;;6.82;100.00;96319.09;4982297;28;20038;-67
2024/04/02 06:42:23;;;;;;;4.45;0.80;;;;;;;6.87;100.00;96319.59;4961757;28;20944;-66
2024/04/02 06:44:49;;;;;;;3.00;0.77;;;;;;;6.98;100.00;96327.25;5001233;28;20041;-66
2024/04/02 06:47:15;;;;;;;2.63;0.90;;;;;;;7.19;100.00;96322.31;4995137;28;20030;-66
2024/04/02 06:49:40;;;;;;;4.15;1.23;;;;;;;7.12;100.00;96324.88;5000507;28;20045;-66
2024/04/02 06:52:06;;;;;;;2.28;0.82;;;;;;;7.12;100.00;96321.38;4994278;28;20046;-65
2024/04/02 06:54:31;;;;;;;1.33;0.80;;;;;;;7.41;100.00;96329.03;4999264;28;20129;-66
2024/04/02 06:56:57;;;;;;;4.30;1.20;;;;;;;7.33;100.00;96343.66;5000412;28;20038;-66
2024/04/02 06:59:22;;;;;;;5.00;0.98;;;;;;;7.30;100.00;96335.41;4995693;28;20910;-66
2024/04/02 07:01:48;;;;;;;4.22;0.98;;;;;;;7.36;100.00;96333.97;4982664;28;20505;-66
2024/04/02 07:04:13;;;;;;;1.70;0.60;;;;;;;7.41;100.00;96339.16;4994959;28;20451;-66
2024/04/02 07:06:39;;;;;;;4.68;0.80;;;;;;;7.55;100.00;96344.94;4999446;28;20413;-65
2024/04/02 07:09:04;;;;;;;2.58;1.30;;;;;;;7.46;100.00;96341.63;4996588;28;20117;-68
2024/04/02 07:11:30;;;;;;;2.25;1.08;;;;;;;7.56;100.00;96353.88;4982271;28;20033;-66
2024/04/02 07:13:55;;;;;;;6.05;1.33;;;;;;;7.68;100.00;96351.03;5000071;28;20091;-67
2024/04/02 07:16:21;;;;;;;4.28;1.00;;;;;;;7.59;100.00;96351.25;4995921;28;20208;-67
2024/04/02 07:18:46;;;;;;;3.33;1.00;;;;;;;7.57;100.00;96360.94;5000561;28;20135;-66
2024/04/02 07:21:12;;;;;;;4.85;1.48;;;;;;;7.66;100.00;96372.44;4995530;28;20508;-65
2024/04/02 07:23:37;;;;;;;2.20;1.15;;;;;;;7.77;100.00;96369.94;4999544;28;20129;-67
2024/04/02 07:26:03;;;;;;;2.78;0.90;;;;;;;7.81;100.00;96368.88;4981845;28;20405;-66
2024/04/02 07:28:29;;;;;;;3.22;0.70;;;;;;;7.94;100.00;96379.63;4997424;28;20485;-64
2024/04/02 07:30:55;;;;;;;4.63;1.00;;;;;;;7.89;100.00;96375.25;4982362;28;20132;-66
2024/04/02 07:33:21;;;;;;;3.50;1.10;;;;;;;8.04;100.00;96376.34;4995953;28;20857;-66
2024/04/02 07:35:48;;;;;;;2.95;1.40;;;;;;;8.12;100.00;96380.00;4991620;28;20121;-64
2024/04/02 07:38:14;;;;;;;4.18;0.95;;;;;;;8.35;100.00;96380.09;4997309;28;20400;-66
2024/04/02 07:40:39;;;;;;;7.57;1.60;;;;;;;8.42;100.00;96383.78;4982242;28;20066;-66
2024/04/02 07:43:08;;;;;;;4.50;1.02;;;;;;;8.60;100.00;96389.56;4977913;28;20074;-66
2024/04/02 07:45:34;;;;;;;4.30;1.10;;;;;;;8.61;100.00;96374.78;4981599;28;20531;-66
2024/04/02 07:48:00;;;;;;;5.53;0.98;;;;;;;8.74;100.00;96383.59;4982082;28;20369;-66
2024/04/02 07:50:34;;;;;;;2.85;0.80;;;;;;;8.97;100.00;96388.31;4996543;28;20523;-67
2024/04/02 07:53:00;;;;;;;7.10;1.35;;;;;;;9.20;100.00;96391.03;4978745;28;20041;-67
2024/04/02 07:55:26;;;;;;;6.50;1.08;;;;;;;9.10;100.00;96381.50;4976282;28;20145;-67
2024/04/02 07:57:51;;;;;;;3.72;1.35;;;;;;;9.04;100.00;96384.88;4998620;28;20045;-67
2024/04/02 08:00:17;;;;;;;2.88;0.80;;;;;;;9.42;100.00;96386.69;4993478;28;20046;-67
2024/04/02 08:02:45;;;;;;;6.78;1.63;;;;;;;10.45;100.00;96394.78;4982236;28;20410;-66
2024/04/02 08:05:11;;;;;;;3.38;1.48;;;;;;;10.88;100.00;96378.03;4998191;28;20473;-67
2024/04/02 08:07:36;;;;;;;4.10;0.80;;;;;;;10.78;100.00;96384.19;5003362;28;20050;-67
2024/04/02 08:10:03;;;;;;;7.97;0.80;;;;;;;10.82;100.00;96376.78;5000811;28;20097;-65
2024/04/02 08:12:28;;;;;;;4.40;0.77;;;;;;;10.70;100.00;96395.06;5002401;28;20069;-67
2024/04/02 08:14:54;;;;;;;2.60;0.73;;;;;;;10.33;100.00;96392.28;5003105;28;20073;-66
2024/04/02 08:17:19;;;;;;;2.28;0.70;;;;;;;10.66;100.00;96401.66;4997740;28;20034;-67
2024/04/02 08:19:45;;;;;;;4.60;0.73;;;;;;;10.90;100.00;96405.84;4985982;28;20684;-67
2024/04/02 08:22:10;;;;;;;2.20;0.55;;;;;;;11.90;96.63;96405.09;4998463;28;20038;-67
2024/04/02 08:24:36;;;;;;;2.67;0.98;;;;;;;11.93;91.82;96404.38;4984209;28;20065;-68
2024/04/02 08:27:05;;;;;;;3.85;0.65;;;;;;;11.54;92.41;96405.66;4999682;28;20033;-66
2024/04/02 08:29:30;;;;;;;3.20;0.90;;;;;;;11.74;92.09;96417.16;5002977;28;20127;-67
2024/04/02 08:31:56;;;;;;;4.78;0.90;;;;;;;12.37;85.08;96412.47;4985318;28;20436;-66
2024/04/02 08:34:21;;;;;;;3.85;0.70;;;;;;;12.51;82.38;96410.94;4998814;28;20486;-68
2024/04/02 08:36:58;;;;;;;7.53;0.80;;;;;;;13.48;76.91;96420.22;5004083;28;20042;-67
2024/04/02 08:39:23;;;;;;;3.35;0.80;;;;;;;13.48;72.94;96422.97;5016454;28;20037;-67
2024/04/02 08:41:53;;;;;;;2.72;0.65;;;;;;;13.42;70.71;96421.78;5001980;28;20053;-66
2024/04/02 08:44:18;;;;;;;4.50;1.00;;;;;;;13.70;72.52;96421.03;5004992;28;20042;-66
2024/04/02 08:46:44;;;;;;;6.25;0.95;;;;;;;14.66;66.67;96415.72;5002482;28;20052;-66
2024/04/02 08:49:10;;;;;;;8.00;0.88;;;;;;;13.93;67.69;96422.56;4999321;28;20084;-67
2024/04/02 08:51:35;;;;;;;2.38;0.70;;;;;;;14.95;64.85;96423.84;5002660;28;20116;-67
2024/04/02 08:54:01;;;;;;;1.90;0.70;;;;;;;15.18;60.71;96429.63;5002261;28;20050;-66
2024/04/02 08:56:26;;;;;;;4.85;0.73;;;;;;;15.84;58.61;96422.44;4999942;28;20381;-67
2024/04/02 08:58:54;;;;;;;3.50;1.00;;;;;;;15.22;56.58;96433.13;5002927;28;20079;-67
2024/04/02 09:01:20;;;;;;;4.32;1.00;;;;;;;15.07;55.14;96428.88;4996592;28;20076;-66
2024/04/02 09:03:49;;;;;;;6.95;0.60;;;;;;;15.33;55.45;96435.06;5002260;28;20057;-66
2024/04/02 09:06:14;;;;;;;2.83;0.70;;;;;;;13.80;56.94;96430.44;4995532;28;20045;-66
2024/04/02 09:08:47;;;;;;;4.82;0.70;;;;;;;13.74;59.71;96438.31;5000876;28;20034;-67
2024/04/02 09:11:13;;;;;;;4.63;0.82;;;;;;;14.26;58.49;96437.06;4998274;28;20042;-67
2024/04/02 09:13:42;;;;;;;3.60;0.75;;;;;;;14.82;55.78;96423.50;5001371;28;20041;-67
2024/04/02 09:16:08;;;;;;;4.13;0.97;;;;;;;14.73;51.29;96426.72;4979880;28;20202;-66
2024/04/02 09:18:40;;;;;;;2.53;0.70;;;;;;;15.27;51.77;96424.44;5001419;28;20480;-67
2024/04/02 09:21:05;;;;;;;3.83;0.85;;;;;;;15.11;53.68;96426.91;4996867;28;20046;-65
2024/04/02 09:23:31;;;;;;;4.30;0.50;;;;;;;14.72;52.34;96420.41;5002915;28;20058;-65
2024/04/02 09:25:57;;;;;;;4.00;0.98;;;;;;;14.78;53.38;96409.72;5001239;28;20053;-65
2024/04/02 09:28:23;;;;;;;3.75;0.57;;;;;;;15.21;51.86;96419.75;4980672;28;20049;-68
2024/04/02 09:30:48;;;;;;;7.25;0.90;;;;;;;15.79;51.41;96429.22;5002299;28;20046;-68
2024/04/02 09:33:16;;;;;;;3.60;0.57;;;;;;;15.49;50.75;96438.88;4977892;28;20058;-66
2024/04/02 09:36:00;;;;;;;3.08;0.60;;;;;;;14.54;53.81;96434.22;5001637;28;20116;-66
2024/04/02 09:38:27;;;;;;;2.38;0.57;;;;;;;14.22;54.32;96419.75;4998514;28;20049;-67
2024/04/02 09:40:53;;;;;;;3.00;0.85;;;;;;;13.64;56.72;96433.59;5007202;28;20053;-65
2024/04/02 09:43:20;;;;;;;5.55;0.95;;;;;;;13.93;56.80;96428.84;5002588;28;20125;-66
2024/04/02 09:45:48;;;;;;;2.30;0.60;;;;;;;14.61;55.68;96424.41;5003774;28;20132;-66
2024/04/02 09:48:14;;;;;;;1.45;0.60;;;;;;;14.48;54.93;96419.28;4998847;28;20077;-67
2024/04/02 09:50:42;;;;;;;3.40;0.70;;;;;;;14.36;56.48;96408.69;4985449;28;20065;-66
2024/04/02 09:53:10;;;;;;;5.50;0.75;;;;;;;15.13;52.64;96409.97;4997446;28;20069;-65
2024/04/02 09:55:35;;;;;;;2.92;0.50;;;;;;;15.15;51.51;96413.88;5001725;28;20042;-68
2024/04/02 09:58:01;;;;;;;4.10;1.02;;;;;;;14.88;51.19;96408.91;5001512;28;20041;-63
2024/04/02 10:00:29;;;;;;;1.90;0.55;;;;;;;15.62;50.37;96406.03;4998666;28;20107;-68
2024/04/02 10:02:56;;;;;;;5.38;0.80;;;;;;;15.07;51.10;96407.63;5001911;28;20042;-67
2024/04/02 10:05:22;;;;;;;4.03;0.88;;;;;;;14.46;53.27;96396.88;4997454;28;20316;-67
2024/04/02 10:07:50;;;;;;;3.00;0.73;;;;;;;14.26;54.22;96402.06;5001028;28;20097;-66
2024/04/02 10:10:16;;;;;;;3.17;0.70;;;;;;;14.03;55.03;96399.75;4980077;28;20033;-68
2024/04/02 10:12:42;;;;;;;4.10;0.68;;;;;;;13.79;55.70;96404.09;4984224;28;20079;-68
2024/04/02 10:15:12;;;;;;;2.33;0.57;;;;;;;13.76;57.88;96405.66;4997464;28;20038;-68
2024/04/02 10:17:38;;;;;;;2.95;0.73;;;;;;;13.22;60.10;96398.56;4968064;28;20501;-69
2024/04/02 10:20:30;;;;;;;2.67;0.70;;;;;;;13.19;61.47;96394.63;4979065;28;20057;-67
2024/04/02 10:22:57;;;;;;;2.97;0.60;;;;;;;13.33;61.07;96404.91;5006931;28;20050;-66
2024/04/02 10:25:28;;;;;;;3.38;0.85;;;;;;;13.14;61.63;96401.31;5003982;28;20702;-66
2024/04/02 10:28:03;;;;;;;4.72;0.82;;;;;;;13.22;62.54;96395.81;5003210;28;20084;-66
2024/04/02 10:30:29;;;;;;;3.83;0.85;;;;;;;12.82;62.68;96369.06;5000975;28;20046;-69
2024/04/02 10:32:56;;;;;;;5.32;1.00;;;;;;;12.00;80.11;96421.66;5005363;28;20034;-66
2024/04/02 10:35:26;;;;;;;4.18;0.82;;;;;;;11.56;93.78;96429.94;5002759;28;20264;-66
2024/04/02 10:37:53;;;;;;;4.35;0.68;;;;;;;12.13;95.01;96433.09;5005370;28;20046;-66
2024/04/02 10:40:19;;;;;;;3.33;0.57;;;;;;;12.83;92.05;96438.53;4995735;28;20041;-64
2024/04/02 10:42:49;;;;;;;5.28;0.63;;;;;;;12.31;94.15;96424.19;4982877;28;20049;-63
2024/04/02 10:45:16;;;;;;;1.95;1.02;;;;;;;13.30;90.25;96427.66;4995653;28;20038;-65
2024/04/02 10:47:52;;;;;;;3.55;0.82;;;;;;;13.61;86.93;96419.81;4999650;28;20049;-65
2024/04/02 10:50:22;;;;;;;2.47;0.50;;;;;;;13.94;82.99;96422.16;4996579;28;20049;-66
2024/04/02 10:52:47;;;;;;;2.40;0.50;;;;;;;13.50;83.92;96439.88;4982826;28;20056;-65
2024/04/02 10:55:13;;;;;;;2.00;0.68;;;;;;;14.43;77.24;96427.97;4979428;28;20121;-65
2024/04/02 10:57:39;;;;;;;2.35;0.70;;;;;;;13.67;77.68;96437.53;5001561;28;20489;-66
2024/04/02 11:00:09;;;;;;;6.03;0.73;;;;;;;13.62;78.40;96435.94;4995958;28;20056;-66
2024/04/02 11:02:35;;;;;;;2.58;0.40;;;;;;;13.65;79.69;96437.13;5001012;28;20096;-67
2024/04/02 11:05:01;;;;;;;3.58;0.60;;;;;;;13.61;78.52;96434.38;4997000;28;20538;-65
2024/04/02 11:07:27;;;;;;;0.77;0.40;;;;;;;13.27;74.43;96431.97;4998222;28;20042;-68
2024/04/02 11:09:53;;;;;;;1.35;0.65;;;;;;;13.28;77.80;96428.03;5001339;28;20687;-68
2024/04/02 11:12:20;;;;;;;2.10;0.45;;;;;;;13.57;78.44;96426.09;4994426;28;20097;-67
2024/04/02 11:14:49;;;;;;;1.65;0.50;;;;;;;13.67;74.97;96430.06;5000316;28;20677;-66
2024/04/02 11:17:15;;;;;;;4.55;0.82;;;;;;;13.04;80.16;96426.81;4977479;28;20077;-67
2024/04/02 11:19:40;;;;;;;4.97;0.70;;;;;;;12.98;78.95;96429.16;4998467;28;20076;-67
2024/04/02 11:24:57;;;;;;;2.80;0.50;;;;;;;12.70;78.28;96429.84;4999859;28;20192;-65
2024/04/02 11:27:27;;;;;;;3.45;1.00;;;;;;;12.99;80.27;96430.72;4993964;28;20050;-66
2024/04/02 11:29:53;;;;;;;6.85;0.70;;;;;;;13.56;75.79;96432.03;4998406;28;20038;-66
2024/04/02 11:32:20;;;;;;;0.80;0.40;;;;;;;13.16;79.92;96448.47;4993800;28;20034;-68